createdAt,value
2019-04-10T17:55:27.327Z,62.40
2019-04-10T17:57:58.246Z,63.60
2019-04-10T18:00:45.364Z,64.20
2019-04-10T18:03:17.876Z,64.50
2019-04-10T18:05:45.283Z,64.80
2019-04-10T18:08:14.041Z,65.60
2019-04-10T18:10:49.539Z,64.80
2019-04-10T18:13:13.798Z,64.80
2019-04-10T18:15:44.106Z,64.90
2019-04-10T18:18:13.690Z,65.10
2019-04-10T18:20:42.685Z,66.20
2019-04-10T18:23:11.506Z,66.50
2019-04-10T18:25:40.208Z,66.50
2019-04-10T18:28:09.619Z,66.50
2019-04-10T18:30:38.829Z,66.50
2019-04-10T18:33:07.632Z,66.50
2019-04-10T18:35:36.663Z,66.50
2019-04-10T18:38:06.016Z,66.70
2019-04-10T18:40:35.149Z,66.70
2019-04-10T18:43:04.398Z,66.80
2019-04-10T18:45:33.684Z,66.70
2019-04-10T18:48:02.771Z,66.60
2019-04-10T18:50:34.026Z,66.80
2019-04-10T18:53:03.730Z,66.90
2019-04-10T18:55:32.409Z,66.90
2019-04-10T18:58:03.795Z,67.00
2019-04-10T19:01:07.954Z,67.10
2019-04-10T19:04:04.319Z,67.10
2019-04-10T19:07:11.305Z,67.10
2019-04-10T19:09:40.974Z,67.20
2019-04-10T19:12:10.678Z,67.10
2019-04-10T19:14:40.612Z,67.00
2019-04-10T19:17:28.865Z,67.10
2019-04-10T19:19:59.513Z,67.20
2019-04-10T19:22:29.046Z,67.20
2019-04-10T19:24:58.351Z,67.20
2019-04-10T19:27:28.427Z,67.40
2019-04-10T19:29:57.567Z,67.30
2019-04-10T19:32:33.833Z,67.40
2019-04-10T19:35:02.893Z,67.50
2019-04-10T19:37:32.457Z,67.50
2019-04-10T19:40:02.918Z,67.60
2019-04-10T19:42:31.787Z,67.70
2019-04-10T19:45:02.142Z,67.70
2019-04-10T19:47:32.587Z,67.80
2019-04-10T19:50:01.515Z,67.90
2019-04-10T19:52:31.030Z,67.80
2019-04-10T19:55:01.260Z,67.70
2019-04-10T19:57:31.159Z,67.80
2019-04-10T20:00:01.405Z,67.70
2019-04-10T20:02:31.251Z,68.50
2019-04-10T20:05:01.251Z,68.50
2019-04-10T20:07:31.180Z,68.40
2019-04-10T20:10:02.034Z,68.20
2019-04-10T20:12:33.344Z,68.00
2019-04-10T20:15:02.618Z,67.90
2019-04-10T20:17:32.997Z,67.90
2019-04-10T20:20:04.712Z,68.60
2019-04-10T20:22:34.986Z,68.60
2019-04-10T20:25:06.094Z,68.50
2019-04-10T20:27:36.200Z,68.30
2019-04-10T20:30:05.873Z,68.30
2019-04-10T20:32:36.318Z,68.20
2019-04-10T20:35:05.286Z,68.20
2019-04-10T20:37:34.776Z,68.20
2019-04-10T20:40:03.574Z,68.20
2019-04-10T20:42:32.773Z,68.20
2019-04-10T20:45:01.256Z,68.20
2019-04-10T20:47:30.934Z,68.20
2019-04-10T20:50:00.088Z,68.30
2019-04-10T20:52:28.952Z,68.30
2019-04-10T20:54:59.322Z,68.50
2019-04-10T20:57:29.696Z,68.50
2019-04-10T20:59:59.515Z,68.60
2019-04-10T21:02:28.494Z,68.60
2019-04-10T21:05:03.152Z,68.80
2019-04-10T21:07:29.754Z,68.90
2019-04-10T21:09:58.754Z,69.00
2019-04-10T21:12:28.015Z,69.10
2019-04-10T21:14:57.085Z,69.20
2019-04-10T21:17:26.182Z,69.20
2019-04-10T21:19:55.955Z,69.30
2019-04-10T21:22:28.587Z,69.40
2019-04-10T21:24:58.367Z,69.50
2019-04-10T21:27:27.964Z,69.50
2019-04-10T21:30:05.616Z,69.60
2019-04-10T21:32:58.250Z,69.60
2019-04-10T21:35:32.660Z,69.70
2019-04-10T21:38:02.600Z,69.80
2019-04-10T21:40:31.305Z,69.90
2019-04-10T21:43:01.494Z,70.00
2019-04-10T21:45:30.262Z,70.10
2019-04-10T21:47:59.950Z,70.20
2019-04-10T21:50:29.345Z,70.30
2019-04-10T21:52:58.168Z,70.30
2019-04-10T21:55:27.192Z,71.20
2019-04-10T21:57:57.501Z,71.20
2019-04-10T22:00:45.152Z,71.10
2019-04-10T22:03:14.724Z,71.10
2019-04-10T22:05:46.501Z,71.10
2019-04-10T22:08:25.988Z,71.10
2019-04-10T22:10:54.905Z,71.10
2019-04-10T22:13:24.038Z,71.10
2019-04-10T22:15:53.917Z,71.10
2019-04-10T22:18:23.321Z,71.00
2019-04-10T22:20:52.437Z,71.00
2019-04-10T22:23:22.432Z,71.00
2019-04-10T22:25:52.257Z,71.00
2019-04-10T22:28:21.357Z,71.00
2019-04-10T22:30:50.603Z,70.90
2019-04-10T22:33:20.171Z,71.00
2019-04-10T22:35:50.372Z,70.80
2019-04-10T22:38:19.393Z,70.70
2019-04-10T22:40:48.320Z,70.70
2019-04-10T22:43:18.153Z,70.70
2019-04-10T22:45:46.979Z,70.70
2019-04-10T22:48:16.846Z,70.70
2019-04-10T22:50:45.439Z,70.80
2019-04-10T22:53:15.180Z,70.80
2019-04-10T22:55:44.416Z,70.80
2019-04-10T22:58:13.318Z,70.70
2019-04-10T23:00:42.107Z,70.70
2019-04-10T23:03:11.459Z,70.80
2019-04-10T23:05:40.661Z,70.80
2019-04-10T23:08:09.817Z,70.80
2019-04-10T23:10:39.239Z,71.00
2019-04-10T23:13:08.975Z,70.90
2019-04-10T23:15:39.755Z,70.80
2019-04-10T23:18:09.536Z,70.80
2019-04-10T23:20:39.723Z,70.80
2019-04-10T23:23:09.030Z,70.80
2019-04-10T23:25:37.758Z,71.00
2019-04-10T23:28:07.459Z,71.00
2019-04-10T23:30:37.083Z,71.10
2019-04-10T23:33:06.062Z,71.20
2019-04-10T23:35:35.716Z,71.30
2019-04-10T23:38:04.418Z,71.40
2019-04-10T23:40:34.774Z,71.60
2019-04-10T23:43:11.288Z,71.70
2019-04-10T23:45:34.615Z,71.80
2019-04-10T23:48:04.541Z,71.80
2019-04-10T23:50:34.555Z,72.00
2019-04-10T23:53:04.480Z,72.00
2019-04-10T23:55:34.288Z,72.00
2019-04-10T23:58:03.566Z,72.10
